createdAt,value
2022-08-22T00:03:23.861Z,31.00
2022-08-22T00:04:06.885Z,0.00
2022-08-22T00:05:07.255Z,0.00
2022-08-22T00:06:07.614Z,0.00
2022-08-22T00:07:07.967Z,0.00
2022-08-22T00:08:08.383Z,0.00
2022-08-22T00:09:08.695Z,0.00
2022-08-22T00:10:09.057Z,0.00
2022-08-22T00:11:09.425Z,0.00
2022-08-22T00:12:09.777Z,0.00
2022-08-22T00:13:10.166Z,0.00
2022-08-22T00:14:10.514Z,0.00
2022-08-22T00:15:16.377Z,0.00
2022-08-22T00:16:11.246Z,0.00
2022-08-22T00:17:11.605Z,0.00
2022-08-22T00:18:11.981Z,0.00
2022-08-22T00:19:12.332Z,0.00
2022-08-22T00:20:12.696Z,0.00
2022-08-22T00:21:13.047Z,0.00
2022-08-22T00:22:13.413Z,0.00
2022-08-22T00:23:13.781Z,0.00
2022-08-22T00:24:14.133Z,0.00
2022-08-22T00:25:25.446Z,0.00
2022-08-22T00:26:14.858Z,0.00
2022-08-22T00:27:15.219Z,0.00
2022-08-22T00:28:15.596Z,0.00
2022-08-22T00:29:15.948Z,0.00
2022-08-22T00:30:16.315Z,0.00
2022-08-22T00:31:16.684Z,0.00
2022-08-22T00:32:17.041Z,0.00
2022-08-22T00:33:17.426Z,0.00
2022-08-22T00:34:17.763Z,0.00
2022-08-22T00:35:18.124Z,0.00
2022-08-22T00:36:18.472Z,0.00
2022-08-22T00:37:18.829Z,0.00
2022-08-22T00:38:19.218Z,0.00
2022-08-22T00:39:19.580Z,0.00
2022-08-22T00:40:20.052Z,0.00
2022-08-22T00:41:20.292Z,0.00
2022-08-22T00:42:29.097Z,0.00
2022-08-22T00:43:21.027Z,0.00
2022-08-22T00:44:21.391Z,0.00
2022-08-22T00:45:21.734Z,0.00
2022-08-22T00:46:22.119Z,0.00
2022-08-22T00:47:22.461Z,0.00
2022-08-22T00:48:22.831Z,0.00
2022-08-22T00:49:23.162Z,0.00
2022-08-22T00:50:23.534Z,0.00
2022-08-22T00:51:23.917Z,0.00
2022-08-22T00:52:24.270Z,0.00
2022-08-22T00:53:24.654Z,0.00
2022-08-22T00:54:24.999Z,0.00
2022-08-22T00:55:25.358Z,0.00
2022-08-22T00:56:25.736Z,0.00
2022-08-22T00:57:26.112Z,0.00
2022-08-22T00:58:26.481Z,0.00
2022-08-22T00:59:26.828Z,0.00
2022-08-22T01:00:27.189Z,0.00
2022-08-22T01:01:27.635Z,0.00
2022-08-22T01:02:27.905Z,0.00
2022-08-22T01:03:28.277Z,0.00
2022-08-22T01:04:28.623Z,0.00
2022-08-22T01:05:28.999Z,0.00
2022-08-22T01:06:29.368Z,0.00
2022-08-22T01:07:37.891Z,0.00
2022-08-22T01:08:30.131Z,0.00
2022-08-22T01:09:30.448Z,0.00
2022-08-22T01:10:30.804Z,0.00
2022-08-22T01:11:31.157Z,0.00
2022-08-22T01:12:31.515Z,0.00
2022-08-22T01:13:31.906Z,0.00
2022-08-22T01:14:34.157Z,0.00
2022-08-22T01:15:32.614Z,0.00
2022-08-22T01:16:32.973Z,0.00
2022-08-22T01:17:33.349Z,0.00
2022-08-22T01:18:33.739Z,0.00
2022-08-22T01:19:34.058Z,0.00
2022-08-22T01:20:34.416Z,0.00
2022-08-22T01:21:34.826Z,0.00
2022-08-22T01:22:35.131Z,0.00
2022-08-22T01:23:35.512Z,0.00
2022-08-22T01:24:35.848Z,0.00
2022-08-22T01:25:36.202Z,0.00
2022-08-22T01:26:36.548Z,0.00
2022-08-22T01:27:36.908Z,0.00
2022-08-22T01:28:37.290Z,0.00
2022-08-22T01:29:38.034Z,0.00
2022-08-22T01:30:38.002Z,0.00
2022-08-22T01:31:38.359Z,0.00
2022-08-22T01:32:38.727Z,0.00
2022-08-22T01:33:39.105Z,0.00
2022-08-22T01:34:39.456Z,0.00
2022-08-22T01:35:39.819Z,0.00
2022-08-22T01:36:40.162Z,0.00
2022-08-22T01:37:43.697Z,0.00
2022-08-22T01:38:40.931Z,0.00
2022-08-22T01:39:41.299Z,0.00
2022-08-22T01:40:53.334Z,0.00
2022-08-22T01:41:41.986Z,0.00
2022-08-22T01:42:42.346Z,0.00
2022-08-22T01:43:59.548Z,0.00
2022-08-22T01:44:43.079Z,0.00
2022-08-22T01:45:43.452Z,0.00
2022-08-22T01:46:43.796Z,0.00
2022-08-22T01:47:44.156Z,0.00
2022-08-22T01:48:44.606Z,0.00
2022-08-22T01:49:44.869Z,0.00
2022-08-22T01:50:45.232Z,0.00
2022-08-22T01:51:45.583Z,0.00
2022-08-22T01:52:45.947Z,0.00
2022-08-22T01:53:46.316Z,0.00
2022-08-22T01:54:46.673Z,0.00
2022-08-22T01:55:47.035Z,0.00
2022-08-22T01:56:47.428Z,0.00
2022-08-22T01:57:47.744Z,0.00
2022-08-22T01:58:48.117Z,0.00
2022-08-22T01:59:48.479Z,0.00
2022-08-22T02:00:48.883Z,0.00
2022-08-22T02:01:49.182Z,0.00
2022-08-22T02:02:49.543Z,0.00
2022-08-22T02:03:49.916Z,0.00
2022-08-22T02:04:50.298Z,0.00
2022-08-22T02:05:50.653Z,0.00
2022-08-22T02:06:51.015Z,0.00
2022-08-22T02:07:51.380Z,0.00
2022-08-22T02:08:51.771Z,0.00
2022-08-22T02:09:52.103Z,0.00
2022-08-22T02:10:52.442Z,0.00
2022-08-22T02:11:52.798Z,0.00
2022-08-22T02:12:53.151Z,0.00
2022-08-22T02:13:53.560Z,0.00
2022-08-22T02:14:53.864Z,0.00
2022-08-22T02:15:54.261Z,0.00
2022-08-22T02:16:54.569Z,0.00
2022-08-22T02:17:54.962Z,0.00
2022-08-22T02:18:55.323Z,0.00
2022-08-22T02:19:55.672Z,0.00
2022-08-22T02:20:56.033Z,0.00
2022-08-22T02:21:56.394Z,0.00
2022-08-22T02:22:56.753Z,0.00
2022-08-22T02:23:57.134Z,0.00
2022-08-22T02:24:57.487Z,0.00
2022-08-22T02:25:57.850Z,0.00
2022-08-22T02:26:58.212Z,0.00
2022-08-22T02:27:58.712Z,0.00
2022-08-22T02:28:58.952Z,0.00
2022-08-22T02:29:59.305Z,0.00
2022-08-22T02:30:59.647Z,0.00
2022-08-22T02:32:00.004Z,0.00
2022-08-22T02:33:00.363Z,0.00
2022-08-22T02:34:00.741Z,0.00
2022-08-22T02:35:01.102Z,0.00
2022-08-22T02:36:01.453Z,0.00
2022-08-22T02:37:01.814Z,0.00
2022-08-22T02:38:02.161Z,0.00
2022-08-22T02:39:02.513Z,0.00
2022-08-22T02:40:02.946Z,0.00
2022-08-22T02:41:03.230Z,0.00
2022-08-22T02:42:03.616Z,0.00
2022-08-22T02:43:03.966Z,0.00
2022-08-22T02:44:04.341Z,0.00
2022-08-22T02:45:04.691Z,0.00
2022-08-22T02:46:05.078Z,0.00
2022-08-22T02:47:05.403Z,0.00
2022-08-22T02:48:05.755Z,0.00
2022-08-22T02:49:06.130Z,0.00
2022-08-22T02:50:06.488Z,0.00
2022-08-22T02:51:06.839Z,0.00
2022-08-22T02:52:07.219Z,0.00
2022-08-22T02:53:07.579Z,0.00
2022-08-22T02:54:07.955Z,0.00
2022-08-22T02:55:08.301Z,0.00
2022-08-22T02:56:08.658Z,0.00
2022-08-22T02:57:14.256Z,0.00
2022-08-22T02:58:09.378Z,0.00
2022-08-22T02:59:15.741Z,0.00
2022-08-22T03:00:24.982Z,0.00
2022-08-22T03:01:10.504Z,0.00
2022-08-22T03:02:10.838Z,0.00
2022-08-22T03:03:11.180Z,0.00
2022-08-22T03:04:11.552Z,0.00
2022-08-22T03:05:11.924Z,0.00
2022-08-22T03:06:12.270Z,0.00
2022-08-22T03:07:12.643Z,0.00
2022-08-22T03:08:13.202Z,0.00
2022-08-22T03:09:13.416Z,0.00
2022-08-22T03:10:13.745Z,0.00
2022-08-22T03:11:14.109Z,0.00
2022-08-22T03:12:14.471Z,0.00
2022-08-22T03:13:14.838Z,0.00
2022-08-22T03:14:15.205Z,0.00
2022-08-22T03:15:15.560Z,0.00
2022-08-22T03:16:16.005Z,0.00
2022-08-22T03:17:16.291Z,0.00
2022-08-22T03:18:16.640Z,0.00
2022-08-22T03:19:18.979Z,0.00
2022-08-22T03:20:17.380Z,0.00
2022-08-22T03:21:17.740Z,0.00
2022-08-22T03:22:18.116Z,0.00
2022-08-22T03:23:18.460Z,0.00
2022-08-22T03:24:18.843Z,0.00
2022-08-22T03:25:19.159Z,0.00
2022-08-22T03:26:19.535Z,0.00
2022-08-22T03:27:31.454Z,0.00
2022-08-22T03:28:20.275Z,0.00
2022-08-22T03:29:20.727Z,0.00
2022-08-22T03:30:21.011Z,0.00
2022-08-22T03:31:21.346Z,0.00
2022-08-22T03:32:21.737Z,0.00
2022-08-22T03:33:22.079Z,0.00
2022-08-22T03:34:22.571Z,0.00
2022-08-22T03:35:22.893Z,0.00
2022-08-22T03:36:23.179Z,0.00
2022-08-22T03:37:23.541Z,0.00
2022-08-22T03:38:23.930Z,0.00
2022-08-22T03:39:24.420Z,0.00
2022-08-22T03:40:24.785Z,0.00
2022-08-22T03:41:25.075Z,0.00
2022-08-22T03:42:25.415Z,0.00
2022-08-22T03:43:25.838Z,0.00
2022-08-22T03:44:26.185Z,0.00
2022-08-22T03:45:26.559Z,0.00
2022-08-22T03:46:26.682Z,1.00
2022-08-22T03:47:28.624Z,1.00
2022-08-22T03:48:27.204Z,1.00
2022-08-22T03:49:27.441Z,2.00
2022-08-22T03:50:27.846Z,2.00
2022-08-22T03:51:27.994Z,3.00
2022-08-22T03:52:28.122Z,3.00
2022-08-22T03:53:28.302Z,2.00
2022-08-22T03:54:30.402Z,7.00
2022-08-22T03:55:28.737Z,7.00
2022-08-22T03:56:29.059Z,6.00
2022-08-22T03:57:29.088Z,10.00
2022-08-22T03:58:29.271Z,7.00
2022-08-22T03:59:29.468Z,13.00
2022-08-22T04:00:29.707Z,16.00
2022-08-22T04:01:29.933Z,20.00
2022-08-22T04:02:43.518Z,25.00
2022-08-22T04:03:30.478Z,28.00
2022-08-22T04:04:30.683Z,25.00
2022-08-22T04:05:30.956Z,30.00
2022-08-22T04:06:31.276Z,35.00
2022-08-22T04:07:33.418Z,41.00
2022-08-22T04:08:31.819Z,41.00
2022-08-22T04:09:32.162Z,53.00
2022-08-22T04:10:32.410Z,60.00
2022-08-22T04:11:32.596Z,66.00
2022-08-22T04:12:32.871Z,73.00
2022-08-22T04:13:33.162Z,80.00
2022-08-22T04:14:33.485Z,84.00
2022-08-22T04:15:33.624Z,83.00
2022-08-22T04:16:33.834Z,87.00
2022-08-22T04:17:34.091Z,95.00
2022-08-22T04:18:34.383Z,96.00
2022-08-22T04:19:34.585Z,96.00
2022-08-22T04:20:34.764Z,98.00
2022-08-22T04:21:35.087Z,101.00
2022-08-22T04:22:35.220Z,104.00
2022-08-22T04:23:35.507Z,103.00
2022-08-22T04:24:35.709Z,112.00
2022-08-22T04:25:35.853Z,123.00
2022-08-22T04:26:36.144Z,124.00
2022-08-22T04:27:36.313Z,143.00
2022-08-22T04:28:36.497Z,153.00
2022-08-22T04:29:36.677Z,162.00
2022-08-22T04:30:36.850Z,171.00
2022-08-22T04:31:37.019Z,189.00
2022-08-22T04:32:37.231Z,199.00
2022-08-22T04:33:37.513Z,216.00
2022-08-22T04:34:37.661Z,233.00
2022-08-22T04:35:37.837Z,249.00
2022-08-22T04:36:38.030Z,266.00
2022-08-22T04:37:38.173Z,279.00
2022-08-22T04:38:38.369Z,301.00
2022-08-22T04:39:38.620Z,316.00
2022-08-22T04:40:38.702Z,330.00
2022-08-22T04:41:38.869Z,349.00
2022-08-22T04:42:39.026Z,369.00
2022-08-22T04:43:39.213Z,387.00
2022-08-22T04:44:39.453Z,414.00
2022-08-22T04:45:39.583Z,436.00
2022-08-22T04:46:39.750Z,458.00
2022-08-22T04:47:39.969Z,492.00
2022-08-22T04:48:40.089Z,525.00
2022-08-22T04:49:40.283Z,560.00
2022-08-22T04:50:43.188Z,609.00
2022-08-22T04:51:40.622Z,649.00
2022-08-22T04:52:40.788Z,696.00
2022-08-22T04:53:40.940Z,755.00
2022-08-22T04:54:41.173Z,810.00
2022-08-22T04:55:41.331Z,861.00
2022-08-22T04:56:41.476Z,920.00
2022-08-22T04:57:41.671Z,973.00
2022-08-22T04:58:41.864Z,1018.00
2022-08-22T04:59:42.091Z,1063.00
2022-08-22T05:00:42.347Z,1109.00
2022-08-22T05:01:42.578Z,1147.00
2022-08-22T05:02:42.685Z,1209.00
2022-08-22T05:03:44.969Z,1260.00
2022-08-22T05:04:43.080Z,1329.00
2022-08-22T05:05:43.369Z,1393.00
2022-08-22T05:06:43.408Z,1469.00
2022-08-22T05:07:43.588Z,1541.00
2022-08-22T05:08:43.799Z,1604.00
2022-08-22T05:09:44.065Z,1651.00
2022-08-22T05:10:44.175Z,1679.00
2022-08-22T05:11:44.370Z,1684.00
2022-08-22T05:12:44.590Z,1685.00
2022-08-22T05:13:44.901Z,1688.00
2022-08-22T05:14:44.957Z,1705.00
2022-08-22T05:15:45.114Z,1763.00
2022-08-22T05:16:45.301Z,1866.00
2022-08-22T05:17:45.496Z,1977.00
2022-08-22T05:18:45.661Z,2021.00
2022-08-22T05:19:45.903Z,2017.00
2022-08-22T05:20:46.069Z,2005.00
2022-08-22T05:21:46.291Z,2007.00
2022-08-22T05:22:46.457Z,2017.00
2022-08-22T05:23:46.611Z,2041.00
2022-08-22T05:24:46.828Z,2074.00
2022-08-22T05:25:47.001Z,2081.00
2022-08-22T05:26:47.174Z,2070.00
2022-08-22T05:27:47.365Z,2063.00
2022-08-22T05:28:51.319Z,2084.00
2022-08-22T05:29:47.751Z,2144.00
2022-08-22T05:30:47.917Z,2198.00
2022-08-22T05:31:48.110Z,2228.00
2022-08-22T05:32:48.301Z,2225.00
2022-08-22T05:33:48.513Z,2231.00
2022-08-22T05:34:48.783Z,2258.00
2022-08-22T05:35:51.571Z,2291.00
2022-08-22T05:36:49.085Z,2300.00
2022-08-22T05:37:49.300Z,2269.00
2022-08-22T05:38:49.448Z,2200.00
2022-08-22T05:39:49.697Z,2156.00
2022-08-22T05:40:49.812Z,2143.00
2022-08-22T05:41:50.005Z,2174.00
2022-08-22T05:42:50.220Z,2238.00
2022-08-22T05:43:50.368Z,2345.00
2022-08-22T05:44:50.579Z,2528.00
2022-08-22T05:45:50.772Z,2755.00
2022-08-22T05:46:50.922Z,2916.00
2022-08-22T05:47:51.133Z,2981.00
2022-08-22T05:48:51.343Z,2999.00
2022-08-22T05:49:51.651Z,2911.00
2022-08-22T05:50:51.730Z,2840.00
2022-08-22T05:51:51.915Z,2771.00
2022-08-22T05:52:52.105Z,2720.00
2022-08-22T05:53:52.291Z,2713.00
2022-08-22T05:54:52.513Z,2733.00
2022-08-22T05:55:52.682Z,2724.00
2022-08-22T05:56:52.875Z,2651.00
2022-08-22T05:57:53.112Z,2614.00
2022-08-22T05:58:53.346Z,2618.00
2022-08-22T05:59:53.449Z,2654.00
2022-08-22T06:00:53.641Z,2700.00
2022-08-22T06:01:53.857Z,2774.00
2022-08-22T06:02:53.996Z,2813.00
2022-08-22T06:03:54.195Z,2814.00
2022-08-22T06:04:54.403Z,2787.00
2022-08-22T06:05:54.575Z,2760.00
2022-08-22T06:06:54.795Z,2747.00
2022-08-22T06:07:55.002Z,2731.00
2022-08-22T06:08:55.181Z,2726.00
2022-08-22T06:09:55.417Z,2766.00
2022-08-22T06:10:55.575Z,2853.00
2022-08-22T06:11:55.761Z,2915.00
2022-08-22T06:12:55.932Z,2939.00
2022-08-22T06:13:56.106Z,2962.00
2022-08-22T06:14:56.362Z,2985.00
2022-08-22T06:15:56.485Z,3028.00
2022-08-22T06:16:56.665Z,3123.00
2022-08-22T06:17:57.744Z,3301.00
2022-08-22T06:18:57.044Z,3519.00
2022-08-22T06:19:57.245Z,3747.00
2022-08-22T06:20:57.406Z,3967.00
2022-08-22T06:21:57.597Z,4099.00
2022-08-22T06:22:57.804Z,4099.00
2022-08-22T06:23:57.955Z,4015.00
2022-08-22T06:24:58.194Z,3916.00
2022-08-22T06:25:58.345Z,3841.00
2022-08-22T06:26:58.571Z,3800.00
2022-08-22T06:27:58.916Z,3741.00
2022-08-22T06:28:58.898Z,3689.00
2022-08-22T06:29:59.111Z,3621.00
2022-08-22T06:30:59.319Z,3601.00
2022-08-22T06:31:59.454Z,3597.00
2022-08-22T06:33:00.974Z,3592.00
2022-08-22T06:33:59.811Z,3576.00
2022-08-22T06:35:00.057Z,3547.00
2022-08-22T06:36:00.216Z,3566.00
2022-08-22T06:37:00.398Z,3690.00
2022-08-22T06:38:00.646Z,3933.00
2022-08-22T06:39:00.767Z,4218.00
2022-08-22T06:40:01.009Z,4466.00
2022-08-22T06:41:01.142Z,4550.00
2022-08-22T06:42:01.349Z,4546.00
2022-08-22T06:43:01.538Z,4534.00
2022-08-22T06:44:01.741Z,4541.00
2022-08-22T06:45:01.937Z,4577.00
2022-08-22T06:46:02.099Z,4663.00
2022-08-22T06:47:02.315Z,4755.00
2022-08-22T06:48:02.695Z,4818.00
2022-08-22T06:49:02.670Z,4839.00
2022-08-22T06:50:02.888Z,4847.00
2022-08-22T06:51:03.064Z,4859.00
2022-08-22T06:52:03.265Z,4879.00
2022-08-22T06:53:03.420Z,4937.00
2022-08-22T06:54:03.618Z,4991.00
2022-08-22T06:55:03.827Z,4996.00
2022-08-22T06:56:04.019Z,4966.00
2022-08-22T06:57:04.193Z,4870.00
2022-08-22T06:58:04.381Z,4721.00
2022-08-22T06:59:04.573Z,4587.00
2022-08-22T07:00:04.777Z,4474.00
2022-08-22T07:01:11.080Z,4388.00
2022-08-22T07:02:05.156Z,4331.00
2022-08-22T07:03:05.320Z,4290.00
2022-08-22T07:04:05.572Z,4246.00
2022-08-22T07:05:05.721Z,4210.00
2022-08-22T07:06:05.964Z,4170.00
2022-08-22T07:07:06.088Z,4146.00
2022-08-22T07:08:06.386Z,4150.00
2022-08-22T07:09:07.184Z,4208.00
2022-08-22T07:10:06.679Z,4308.00
2022-08-22T07:11:06.831Z,4438.00
2022-08-22T07:12:07.024Z,4566.00
2022-08-22T07:13:07.271Z,4683.00
2022-08-22T07:14:07.441Z,4760.00
2022-08-22T07:15:07.668Z,4820.00
2022-08-22T07:16:07.829Z,4862.00
2022-08-22T07:17:08.037Z,4876.00
2022-08-22T07:18:08.199Z,4873.00
2022-08-22T07:19:08.438Z,4902.00
2022-08-22T07:20:08.581Z,5032.00
2022-08-22T07:21:09.302Z,5217.00
2022-08-22T07:22:08.934Z,5388.00
2022-08-22T07:23:09.144Z,5546.00
2022-08-22T07:24:09.333Z,5710.00
2022-08-22T07:25:09.524Z,5874.00
2022-08-22T07:26:09.688Z,6197.00
2022-08-22T07:27:09.898Z,6671.00
2022-08-22T07:28:14.500Z,7209.00
2022-08-22T07:29:11.547Z,7714.00
2022-08-22T07:30:10.840Z,8116.00
2022-08-22T07:31:10.681Z,8212.00
2022-08-22T07:32:10.863Z,8100.00
2022-08-22T07:33:25.667Z,7949.00
2022-08-22T07:34:11.231Z,7879.00
2022-08-22T07:35:11.442Z,7885.00
2022-08-22T07:36:11.587Z,7978.00
2022-08-22T07:37:11.767Z,8150.00
2022-08-22T07:38:11.977Z,8403.00
2022-08-22T07:39:12.165Z,8697.00
2022-08-22T07:40:12.417Z,8943.00
2022-08-22T07:41:12.553Z,9079.00
2022-08-22T07:42:12.762Z,9094.00
2022-08-22T07:43:12.958Z,9107.00
2022-08-22T07:44:13.155Z,9098.00
2022-08-22T07:45:13.374Z,9050.00
2022-08-22T07:46:13.530Z,8860.00
2022-08-22T07:47:13.715Z,8731.00
2022-08-22T07:48:19.753Z,8707.00
2022-08-22T07:49:14.103Z,8816.00
2022-08-22T07:50:14.315Z,9053.00
2022-08-22T07:51:14.468Z,9263.00
2022-08-22T07:52:14.673Z,9406.00
2022-08-22T07:53:15.639Z,9456.00
2022-08-22T07:54:15.068Z,9491.00
2022-08-22T07:55:15.270Z,9562.00
2022-08-22T07:56:15.433Z,9563.00
2022-08-22T07:57:15.669Z,9525.00
2022-08-22T07:58:15.836Z,9500.00
2022-08-22T07:59:16.024Z,9574.00
2022-08-22T08:00:16.266Z,9749.00
2022-08-22T08:01:16.496Z,9986.00
2022-08-22T08:02:16.620Z,10241.00
2022-08-22T08:03:16.791Z,10517.00
2022-08-22T08:04:17.025Z,10709.00
2022-08-22T08:05:17.267Z,10834.00
2022-08-22T08:06:17.441Z,10867.00
2022-08-22T08:07:17.601Z,10801.00
2022-08-22T08:08:17.812Z,10730.00
2022-08-22T08:09:18.026Z,10659.00
2022-08-22T08:10:18.438Z,10505.00
2022-08-22T08:11:18.447Z,10291.00
2022-08-22T08:12:18.599Z,10082.00
2022-08-22T08:13:18.759Z,10010.00
2022-08-22T08:14:18.998Z,10060.00
2022-08-22T08:15:19.221Z,10166.00
2022-08-22T08:16:19.393Z,10351.00
2022-08-22T08:17:19.564Z,10636.00
2022-08-22T08:18:19.793Z,10972.00
2022-08-22T08:19:19.960Z,11211.00
2022-08-22T08:20:20.177Z,11319.00
2022-08-22T08:21:20.379Z,11377.00
2022-08-22T08:22:20.641Z,11445.00
2022-08-22T08:23:23.316Z,11391.00
2022-08-22T08:24:20.959Z,11347.00
2022-08-22T08:25:21.171Z,11284.00
2022-08-22T08:26:21.345Z,11049.00
2022-08-22T08:27:21.557Z,10827.00
2022-08-22T08:28:21.761Z,10494.00
2022-08-22T08:29:21.998Z,10266.00
2022-08-22T08:30:22.180Z,10152.00
2022-08-22T08:31:22.361Z,10000.00
2022-08-22T08:32:22.578Z,9881.00
2022-08-22T08:33:25.200Z,9715.00
2022-08-22T08:34:22.921Z,9545.00
2022-08-22T08:35:23.171Z,9369.00
2022-08-22T08:36:23.335Z,9398.00
2022-08-22T08:37:23.586Z,9156.00
2022-08-22T08:38:23.710Z,8879.00
2022-08-22T08:39:23.906Z,8756.00
2022-08-22T08:40:24.230Z,8369.00
2022-08-22T08:41:24.270Z,8237.00
2022-08-22T08:42:24.485Z,8334.00
2022-08-22T08:43:24.727Z,8094.00
2022-08-22T08:44:24.838Z,7816.00
2022-08-22T08:45:25.090Z,7948.00
2022-08-22T08:46:25.239Z,7936.00
2022-08-22T08:47:25.377Z,7922.00
2022-08-22T08:48:25.587Z,8064.00
2022-08-22T08:49:25.782Z,8167.00
2022-08-22T08:50:26.005Z,7528.00
2022-08-22T08:51:26.181Z,6959.00
2022-08-22T08:52:26.370Z,6492.00
2022-08-22T08:53:26.568Z,6299.00
2022-08-22T08:54:26.752Z,6270.00
2022-08-22T08:55:26.936Z,6482.00
2022-08-22T08:56:27.105Z,6981.00
2022-08-22T08:57:27.321Z,7671.00
2022-08-22T08:58:27.466Z,8426.00
2022-08-22T08:59:33.723Z,8632.00
2022-08-22T09:00:29.123Z,8139.00
2022-08-22T09:01:28.621Z,7394.00
2022-08-22T09:02:34.863Z,7091.00
2022-08-22T09:03:30.944Z,6986.00
2022-08-22T09:04:28.592Z,7098.00
2022-08-22T09:05:28.793Z,7217.00
2022-08-22T09:06:28.953Z,7211.00
2022-08-22T09:07:29.174Z,7149.00
2022-08-22T09:08:29.306Z,7255.00
2022-08-22T09:09:29.490Z,7353.00
2022-08-22T09:10:29.738Z,7422.00
2022-08-22T09:11:29.884Z,7460.00
2022-08-22T09:12:30.139Z,6933.00
2022-08-22T09:13:34.546Z,6773.00
2022-08-22T09:14:30.460Z,6847.00
2022-08-22T09:15:30.667Z,7298.00
2022-08-22T09:16:30.817Z,7149.00
2022-08-22T09:17:31.007Z,7277.00
2022-08-22T09:18:31.213Z,7457.00
2022-08-22T09:19:31.380Z,7879.00
2022-08-22T09:20:31.596Z,8457.00
2022-08-22T09:21:31.776Z,8647.00
2022-08-22T09:22:33.436Z,8975.00
2022-08-22T09:23:32.165Z,9153.00
2022-08-22T09:24:32.354Z,9668.00
2022-08-22T09:25:38.674Z,10108.00
2022-08-22T09:26:32.766Z,10173.00
2022-08-22T09:27:32.976Z,10217.00
2022-08-22T09:28:33.164Z,10350.00
2022-08-22T09:29:33.401Z,10722.00
2022-08-22T09:30:33.588Z,10903.00
2022-08-22T09:31:48.297Z,10288.00
2022-08-22T09:32:33.966Z,9429.00
2022-08-22T09:33:34.184Z,8808.00
2022-08-22T09:34:34.392Z,8664.00
2022-08-22T09:35:34.567Z,7828.00
2022-08-22T09:36:34.755Z,7299.00
2022-08-22T09:37:34.912Z,8171.00
2022-08-22T09:38:35.112Z,8269.00
2022-08-22T09:39:35.313Z,6480.00
2022-08-22T09:40:35.524Z,6746.00
2022-08-22T09:41:35.687Z,7226.00
2022-08-22T09:42:35.879Z,7337.00
2022-08-22T09:43:37.526Z,7265.00
2022-08-22T09:44:39.795Z,7349.00
2022-08-22T09:45:36.481Z,7016.00
2022-08-22T09:46:37.194Z,7064.00
2022-08-22T09:47:39.158Z,7511.00
2022-08-22T09:48:37.051Z,11792.00
2022-08-22T09:49:37.237Z,17777.00
2022-08-22T09:50:37.474Z,10516.00
2022-08-22T09:51:37.646Z,9806.00
2022-08-22T09:52:37.846Z,9899.00
2022-08-22T09:53:38.112Z,10162.00
2022-08-22T09:54:38.234Z,10944.00
2022-08-22T09:55:38.433Z,11689.00
2022-08-22T09:56:38.615Z,11788.00
2022-08-22T09:57:38.814Z,11569.00
2022-08-22T09:58:41.641Z,11145.00
2022-08-22T09:59:39.213Z,10574.00
2022-08-22T10:00:39.449Z,10299.00
2022-08-22T10:01:39.666Z,9864.00
2022-08-22T10:02:43.573Z,9351.00
2022-08-22T10:03:40.001Z,9113.00
2022-08-22T10:04:40.204Z,8963.00
2022-08-22T10:05:44.398Z,8814.00
2022-08-22T10:06:40.594Z,8684.00
2022-08-22T10:07:40.833Z,8106.00
2022-08-22T10:08:40.989Z,7626.00
2022-08-22T10:09:41.198Z,7320.00
2022-08-22T10:10:41.434Z,7538.00
2022-08-22T10:11:42.292Z,8050.00
2022-08-22T10:12:41.781Z,10339.00
2022-08-22T10:13:41.972Z,10000.00
2022-08-22T10:14:42.169Z,9445.00
2022-08-22T10:15:42.389Z,10326.00
2022-08-22T10:16:42.539Z,11293.00
2022-08-22T10:17:42.762Z,12173.00
2022-08-22T10:18:52.810Z,12677.00
2022-08-22T10:19:43.141Z,18056.00
2022-08-22T10:20:44.805Z,14060.00
2022-08-22T10:21:43.550Z,12409.00
2022-08-22T10:22:44.548Z,10334.00
2022-08-22T10:23:43.944Z,9178.00
2022-08-22T10:24:44.334Z,8854.00
2022-08-22T10:25:44.364Z,9070.00
2022-08-22T10:26:44.510Z,9414.00
2022-08-22T10:27:44.707Z,11555.00
2022-08-22T10:28:44.919Z,12721.00
2022-08-22T10:29:45.134Z,18798.00
2022-08-22T10:30:45.346Z,80605.00
2022-08-22T10:31:59.456Z,80903.00
2022-08-22T10:32:45.755Z,83202.00
2022-08-22T10:33:45.958Z,17928.00
2022-08-22T10:34:46.142Z,81673.00
2022-08-22T10:35:46.351Z,74992.00
2022-08-22T10:36:46.513Z,77596.00
2022-08-22T10:37:46.729Z,79575.00
2022-08-22T10:38:47.192Z,79705.00
2022-08-22T10:39:47.203Z,77923.00
2022-08-22T10:40:47.657Z,76306.00
2022-08-22T10:41:47.571Z,74500.00
2022-08-22T10:42:47.758Z,74193.00
2022-08-22T10:43:47.974Z,78543.00
2022-08-22T10:44:48.254Z,31762.00
2022-08-22T10:45:48.418Z,31289.00
2022-08-22T10:46:48.590Z,18773.00
2022-08-22T10:47:48.780Z,33714.00
2022-08-22T10:48:48.971Z,27116.00
2022-08-22T10:49:51.318Z,29344.00
2022-08-22T10:50:49.401Z,22061.00
2022-08-22T10:51:49.550Z,13518.00
2022-08-22T10:52:49.754Z,12533.00
2022-08-22T10:53:49.988Z,12317.00
2022-08-22T10:54:50.146Z,25391.00
2022-08-22T10:55:50.354Z,28149.00
2022-08-22T10:56:50.549Z,24895.00
2022-08-22T10:57:52.804Z,29558.00
2022-08-22T10:58:50.943Z,27364.00
2022-08-22T10:59:51.125Z,25305.00
2022-08-22T11:00:51.404Z,22230.00
2022-08-22T11:01:51.595Z,30760.00
2022-08-22T11:02:57.798Z,31300.00
2022-08-22T11:03:51.954Z,78427.00
2022-08-22T11:04:52.118Z,76556.00
2022-08-22T11:05:52.330Z,77040.00
2022-08-22T11:06:52.528Z,81601.00
2022-08-22T11:07:52.725Z,73973.00
2022-08-22T11:08:52.906Z,75288.00
2022-08-22T11:09:53.128Z,81644.00
2022-08-22T11:10:53.357Z,80492.00
2022-08-22T11:11:53.576Z,80373.00
2022-08-22T11:12:53.784Z,32820.00
2022-08-22T11:13:53.920Z,79821.00
2022-08-22T11:14:54.149Z,13807.00
2022-08-22T11:15:54.425Z,13761.00
2022-08-22T11:16:55.284Z,15871.00
2022-08-22T11:17:54.752Z,83643.00
2022-08-22T11:18:57.867Z,82583.00
2022-08-22T11:19:55.184Z,82601.00
2022-08-22T11:20:55.379Z,82641.00
2022-08-22T11:21:55.551Z,81348.00
2022-08-22T11:22:55.935Z,80077.00
2022-08-22T11:23:56.086Z,81809.00
2022-08-22T11:24:56.370Z,82696.00
2022-08-22T11:25:56.444Z,79341.00
2022-08-22T11:26:56.554Z,13791.00
2022-08-22T11:27:56.833Z,18672.00
2022-08-22T11:28:56.946Z,16013.00
2022-08-22T11:29:57.169Z,14731.00
2022-08-22T11:30:57.366Z,13074.00
2022-08-22T11:32:07.780Z,12129.00
2022-08-22T11:32:59.485Z,11334.00
2022-08-22T11:33:57.927Z,11060.00
2022-08-22T11:34:58.088Z,11560.00
2022-08-22T11:35:58.325Z,80059.00
2022-08-22T11:36:58.667Z,20655.00
2022-08-22T11:37:58.699Z,11191.00
2022-08-22T11:38:58.882Z,11034.00
2022-08-22T11:39:59.112Z,11164.00
2022-08-22T11:40:59.297Z,12259.00
2022-08-22T11:41:59.486Z,12769.00
2022-08-22T11:43:01.040Z,26353.00
2022-08-22T11:44:00.155Z,27497.00
2022-08-22T11:45:00.231Z,23917.00
2022-08-22T11:46:00.612Z,24518.00
2022-08-22T11:47:00.530Z,16871.00
2022-08-22T11:48:00.954Z,18497.00
2022-08-22T11:49:01.243Z,26719.00
2022-08-22T11:50:01.188Z,79931.00
2022-08-22T11:51:01.388Z,80388.00
2022-08-22T11:52:01.581Z,79268.00
2022-08-22T11:53:04.599Z,74519.00
2022-08-22T11:54:01.981Z,23714.00
2022-08-22T11:55:02.207Z,23442.00
2022-08-22T11:56:05.267Z,24046.00
2022-08-22T11:57:02.628Z,26405.00
2022-08-22T11:58:02.961Z,27943.00
2022-08-22T11:59:03.121Z,23039.00
2022-08-22T12:00:03.227Z,23731.00
2022-08-22T12:01:03.740Z,24031.00
2022-08-22T12:02:04.224Z,23552.00
2022-08-22T12:03:03.882Z,22777.00
2022-08-22T12:04:04.325Z,24674.00
2022-08-22T12:05:04.340Z,26531.00
2022-08-22T12:06:04.597Z,24579.00
2022-08-22T12:07:04.711Z,21228.00
2022-08-22T12:08:04.913Z,22022.00
2022-08-22T12:09:05.062Z,24651.00
2022-08-22T12:10:05.259Z,19903.00
2022-08-22T12:11:05.552Z,22748.00
2022-08-22T12:12:05.850Z,22487.00
2022-08-22T12:13:05.918Z,24773.00
2022-08-22T12:14:06.829Z,25084.00
2022-08-22T12:15:08.850Z,24579.00
2022-08-22T12:16:06.549Z,24001.00
2022-08-22T12:17:06.679Z,23808.00
2022-08-22T12:18:07.179Z,22287.00
2022-08-22T12:19:07.155Z,24541.00
2022-08-22T12:20:16.378Z,25038.00
2022-08-22T12:21:07.640Z,23027.00
2022-08-22T12:22:07.714Z,22411.00
2022-08-22T12:23:07.965Z,22082.00
2022-08-22T12:24:11.160Z,21392.00
2022-08-22T12:25:08.474Z,19261.00
2022-08-22T12:26:10.987Z,19639.00
2022-08-22T12:27:08.827Z,21442.00
2022-08-22T12:28:08.903Z,20901.00
2022-08-22T12:29:15.738Z,19420.00
2022-08-22T12:30:13.994Z,20026.00